Time;durP1;ratioP1;P1;durP2;ratioP2;P2;SDS_P1;SDS_P2;PMS_P1;PMS_P2;Temp;Humidity;BMP_temperature;BMP_pressure;BME280_temperature;BME280_humidity;BME280_pressure;Samples;Min_cycle;Max_cycle;Signal;HPM_P1;HPM_P2
2024/02/21 00:02:38;;;;;;;;;;;18.00;50.00;;;17.37;46.89;100379.38;10199695;28;901;-70
2024/02/21 00:07:34;;;;;;;;;;;18.00;50.00;;;17.35;47.00;100368.91;10200731;28;832;-70
2024/02/21 00:12:29;;;;;;;;;;;18.00;50.00;;;17.35;46.93;100368.91;10199351;28;913;-70
2024/02/21 00:17:26;;;;;;;;;;;18.00;49.90;;;17.34;46.96;100374.22;10199761;28;1979;-70
2024/02/21 00:22:21;;;;;;;;;;;18.00;49.90;;;17.34;46.96;100361.91;10199547;28;968;-70
2024/02/21 00:27:16;;;;;;;;;;;18.00;50.10;;;17.34;46.83;100351.38;10200154;28;796;-70
2024/02/21 00:32:12;;;;;;;;;;;17.90;50.10;;;17.33;46.84;100343.53;10199324;28;1166;-70
2024/02/21 00:37:08;;;;;;;;;;;17.90;50.00;;;17.32;46.86;100329.50;10199096;28;1906;-70
2024/02/21 00:42:03;;;;;;;;;;;18.00;50.00;;;17.30;47.00;100324.25;10198959;28;977;-70
2024/02/21 00:46:58;;;;;;;;;;;17.90;49.90;;;17.30;46.97;100320.78;10198841;28;898;-70
2024/02/21 00:51:54;;;;;;;;;;;18.00;50.00;;;17.30;46.85;100305.81;10198443;28;917;-70
2024/02/21 00:56:49;;;;;;;;;;;17.90;50.00;;;17.29;46.96;100303.22;10198553;28;1902;-70
2024/02/21 01:01:45;;;;;;;;;;;17.90;50.00;;;17.28;46.85;100291.81;10198976;28;870;-70
2024/02/21 01:06:42;;;;;;;;;;;17.90;49.90;;;17.27;46.87;100299.78;10197741;28;921;-70
2024/02/21 01:11:38;;;;;;;;;;;17.90;49.90;;;17.27;46.70;100291.91;10198735;28;823;-70
2024/02/21 01:16:33;;;;;;;;;;;17.90;49.90;;;17.25;46.71;100286.66;10196901;28;914;-70
2024/02/21 01:21:29;;;;;;;;;;;17.90;50.00;;;17.26;47.02;100282.25;10197929;28;885;-70
2024/02/21 01:26:24;;;;;;;;;;;17.90;50.00;;;17.25;46.88;100276.13;10198355;28;770;-70
2024/02/21 01:31:20;;;;;;;;;;;17.90;49.90;;;17.25;46.83;100270.84;10197248;28;1403;-70
2024/02/21 01:36:15;;;;;;;;;;;17.80;50.00;;;17.23;46.78;100261.28;10198155;28;970;-70
2024/02/21 01:41:11;;;;;;;;;;;17.90;50.00;;;17.23;46.80;100254.22;10197400;28;1910;-70
2024/02/21 01:46:07;;;;;;;;;;;17.80;50.00;;;17.22;46.70;100241.97;10197512;28;866;-70
2024/02/21 01:51:03;;;;;;;;;;;17.90;49.90;;;17.22;46.69;100239.34;10197156;28;961;-70
2024/02/21 01:55:58;;;;;;;;;;;17.80;50.00;;;17.21;46.88;100234.13;10197748;28;834;-70
2024/02/21 02:00:53;;;;;;;;;;;17.80;49.90;;;17.19;46.95;100221.00;10196372;28;2324;-70
2024/02/21 02:05:49;;;;;;;;;;;17.80;49.90;;;17.19;46.99;100217.53;10197495;28;892;-70
2024/02/21 02:10:44;;;;;;;;;;;17.80;50.00;;;17.19;46.85;100218.38;10196808;28;777;-70
2024/02/21 02:15:40;;;;;;;;;;;17.80;49.90;;;17.19;46.67;100214.88;10196630;28;978;-70
2024/02/21 02:20:35;;;;;;;;;;;17.80;49.90;;;17.18;46.88;100205.25;10196519;28;1910;-70
2024/02/21 02:25:31;;;;;;;;;;;17.80;49.90;;;17.17;46.77;100204.38;10197574;28;991;-70
2024/02/21 02:30:26;;;;;;;;;;;17.80;49.90;;;17.16;46.86;100202.69;10203440;28;1447;-70
2024/02/21 02:35:21;;;;;;;;;;;17.80;49.90;;;17.15;46.82;100187.78;10203249;28;830;-70
2024/02/21 02:40:17;;;;;;;;;;;17.80;49.90;;;17.15;46.73;100179.88;10202719;28;1914;-70
2024/02/21 02:45:12;;;;;;;;;;;17.80;49.90;;;17.15;46.66;100155.31;10203058;28;881;-70
2024/02/21 02:50:08;;;;;;;;;;;17.80;49.90;;;17.13;46.92;100159.75;10203217;28;798;-70
2024/02/21 02:55:03;;;;;;;;;;;17.70;49.80;;;17.13;46.72;100154.50;10202323;28;884;-70
2024/02/21 02:59:58;;;;;;;;;;;17.70;49.80;;;17.12;46.93;100135.19;10201538;28;1902;-70
2024/02/21 03:04:54;;;;;;;;;;;17.70;49.90;;;17.12;46.69;100131.72;10202707;28;875;-70
2024/02/21 03:09:49;;;;;;;;;;;17.70;49.80;;;17.11;46.81;100120.31;10201917;28;770;-70
2024/02/21 03:14:44;;;;;;;;;;;17.70;49.80;;;17.11;46.78;100124.69;10202320;28;803;-70
2024/02/21 03:19:40;;;;;;;;;;;17.70;49.80;;;17.09;46.77;100116.88;10201573;28;1906;-70
2024/02/21 03:24:35;;;;;;;;;;;17.70;49.70;;;17.08;46.80;100107.22;10200994;28;1847;-70
2024/02/21 03:29:31;;;;;;;;;;;17.70;49.80;;;17.09;46.67;100122.13;10201603;28;1796;-70
2024/02/21 03:34:26;;;;;;;;;;;17.70;49.80;;;17.08;46.88;100110.75;10200605;28;870;-70
2024/02/21 03:39:21;;;;;;;;;;;17.70;49.90;;;17.08;46.68;100094.06;10200783;28;1919;-70
2024/02/21 03:44:17;;;;;;;;;;;17.70;49.80;;;17.06;46.70;100077.47;10200896;28;891;-70
2024/02/21 03:49:12;;;;;;;;;;;17.70;49.70;;;17.07;46.86;100073.91;10201335;28;947;-70
2024/02/21 03:54:07;;;;;;;;;;;17.70;50.00;;;17.06;46.93;100070.44;10200623;28;867;-70
2024/02/21 03:59:03;;;;;;;;;;;17.70;49.80;;;17.05;46.81;100068.69;10200935;28;1967;-70
2024/02/21 04:03:58;;;;;;;;;;;17.70;49.70;;;17.05;46.75;100094.19;10199637;28;1161;-70
2024/02/21 04:08:54;;;;;;;;;;;17.70;49.70;;;17.04;46.74;100089.84;10201300;28;912;-70
2024/02/21 04:13:50;;;;;;;;;;;17.70;49.60;;;17.04;46.73;100095.09;10199964;28;984;-70
2024/02/21 04:18:45;;;;;;;;;;;17.70;49.70;;;17.04;46.80;100109.13;10200244;28;1910;-70
2024/02/21 04:23:40;;;;;;;;;;;17.70;49.80;;;17.04;46.84;100108.28;10199635;28;1039;-70
2024/02/21 04:28:36;;;;;;;;;;;17.60;49.70;;;17.03;46.77;100098.66;10199339;28;1309;-70
2024/02/21 04:33:31;;;;;;;;;;;17.70;49.70;;;17.02;46.81;100105.69;10200022;28;723;-70
2024/02/21 04:38:28;;;;;;;;;;;17.70;49.80;;;17.02;46.78;100116.22;10199783;28;1981;-70
2024/02/21 04:43:24;;;;;;;;;;;17.70;49.80;;;17.03;46.83;100106.56;10199006;28;880;-70
2024/02/21 04:48:20;;;;;;;;;;;17.70;49.70;;;17.04;46.66;100108.28;10198624;28;953;-70
2024/02/21 04:53:16;;;;;;;;;;;17.70;49.50;;;17.04;46.80;100103.84;10198681;28;889;-70
2024/02/21 04:58:11;;;;;;;;;;;17.70;49.60;;;17.05;46.67;100108.19;10199509;28;1914;-70
2024/02/21 05:03:06;;;;;;;;;;;17.70;49.60;;;17.06;46.54;100095.91;10198036;28;952;-70
2024/02/21 05:08:02;;;;;;;;;;;17.70;49.60;;;17.07;46.57;100100.25;10199111;28;813;-70
2024/02/21 05:12:57;;;;;;;;;;;17.80;49.60;;;17.08;46.64;100094.94;10198214;28;928;-70
2024/02/21 05:17:52;;;;;;;;;;;17.80;49.60;;;17.09;46.66;100088.75;10198232;28;1906;-70
2024/02/21 05:22:48;;;;;;;;;;;17.80;49.60;;;17.11;46.76;100088.72;10197944;28;782;-70
2024/02/21 05:27:43;;;;;;;;;;;17.80;49.60;;;17.13;46.62;100091.28;10197604;28;1000;-70
2024/02/21 05:32:39;;;;;;;;;;;17.80;49.70;;;17.14;46.56;100071.94;10197529;28;1151;-70
2024/02/21 05:37:34;;;;;;;;;;;17.80;49.60;;;17.15;46.73;100079.78;10197471;28;1966;-70
2024/02/21 05:42:30;;;;;;;;;;;17.90;49.60;;;17.17;46.49;100077.09;10197516;28;761;-70
2024/02/21 05:47:25;;;;;;;;;;;17.90;49.60;;;17.17;46.77;100069.19;10197316;28;887;-70
2024/02/21 05:52:20;;;;;;;;;;;17.90;49.60;;;17.19;46.74;100078.75;10197278;28;789;-70
2024/02/21 05:57:16;;;;;;;;;;;17.90;49.70;;;17.20;46.71;100071.72;10198375;28;1964;-72
2024/02/21 06:02:11;;;;;;;;;;;17.90;49.70;;;17.19;46.58;100064.75;10199873;28;881;-71
2024/02/21 06:07:07;;;;;;;;;;;17.90;49.50;;;17.23;46.62;100061.06;10204567;28;864;-71
2024/02/21 06:12:02;;;;;;;;;;;18.00;49.50;;;17.23;46.58;100047.91;10203922;28;859;-70
2024/02/21 06:16:57;;;;;;;;;;;18.00;49.50;;;17.23;46.63;100040.84;10203550;28;1906;-71
2024/02/21 06:21:53;;;;;;;;;;;18.00;49.70;;;17.26;46.76;100045.13;10202864;28;897;-70
2024/02/21 06:26:48;;;;;;;;;;;18.00;49.70;;;17.27;46.83;100031.94;10204017;28;790;-71
2024/02/21 06:31:44;;;;;;;;;;;18.00;49.70;;;17.27;46.67;100026.66;10203048;28;1388;-70
2024/02/21 06:36:39;;;;;;;;;;;18.00;49.70;;;17.28;46.83;100023.09;10202998;28;804;-76
2024/02/21 06:41:34;;;;;;;;;;;18.00;49.60;;;17.30;46.75;100007.25;10203290;28;1914;-72
2024/02/21 06:46:30;;;;;;;;;;;18.00;49.60;;;17.31;46.81;99991.34;10202670;28;778;-70
2024/02/21 06:51:25;;;;;;;;;;;18.10;49.60;;;17.30;46.80;99984.38;10202525;28;847;-70
2024/02/21 06:56:21;;;;;;;;;;;18.00;49.60;;;17.29;46.58;99977.41;10202377;28;815;-70
2024/02/21 07:01:16;;;;;;;;;;;18.00;49.60;;;17.31;46.60;99986.09;10202187;28;1914;-80
2024/02/21 07:06:12;;;;;;;;;;;18.10;49.50;;;17.31;46.60;99985.25;10201454;28;810;-71
2024/02/21 07:11:07;;;;;;;;;;;18.10;49.50;;;17.31;46.53;99991.34;10202495;28;879;-70
2024/02/21 07:16:03;;;;;;;;;;;18.10;49.40;;;17.29;46.67;99985.31;10201899;28;887;-70
2024/02/21 07:20:58;;;;;;;;;;;18.10;49.30;;;17.28;46.51;99988.00;10201579;28;1910;-70
2024/02/21 07:25:54;;;;;;;;;;;18.20;49.20;;;17.28;46.72;99986.22;10201408;28;875;-71
2024/02/21 07:30:49;;;;;;;;;;;18.10;49.40;;;17.28;46.95;99980.09;10201685;28;1100;-70
2024/02/21 07:35:45;;;;;;;;;;;18.10;49.80;;;17.26;46.80;99972.22;10201792;28;829;-68
2024/02/21 07:40:40;;;;;;;;;;;18.10;49.90;;;17.26;46.99;99968.75;10200893;28;1967;-71
2024/02/21 07:45:36;;;;;;;;;;;18.10;50.10;;;17.27;47.07;99959.94;10200891;28;775;-70
2024/02/21 07:50:31;;;;;;;;;;;18.00;50.00;;;17.26;47.00;99956.44;10200689;28;916;-70
2024/02/21 07:55:26;;;;;;;;;;;18.00;49.80;;;17.28;46.68;99951.13;10200002;28;843;-70
2024/02/21 08:00:22;;;;;;;;;;;18.00;49.50;;;17.26;46.81;99935.34;10200901;28;1969;-70
2024/02/21 08:05:17;;;;;;;;;;;18.00;49.80;;;17.28;46.72;99943.22;10199754;28;777;-70
2024/02/21 08:10:13;;;;;;;;;;;18.00;49.80;;;17.28;46.79;99938.78;10200207;28;845;-69
2024/02/21 08:15:10;;;;;;;;;;;18.00;49.90;;;17.29;47.01;99923.84;10200528;28;780;-71
2024/02/21 08:20:05;;;;;;;;;;;18.10;49.80;;;17.30;46.89;99920.31;10199749;28;1902;-70
2024/02/21 08:25:01;;;;;;;;;;;18.10;49.80;;;17.31;46.70;99922.00;10199118;28;913;-70
2024/02/21 08:29:56;;;;;;;;;;;18.00;49.90;;;17.31;46.81;99917.59;10199445;28;1129;-70
2024/02/21 08:34:51;;;;;;;;;;;18.10;49.80;;;17.31;46.87;99909.69;10199884;28;838;-71
2024/02/21 08:39:47;;;;;;;;;;;18.10;49.80;;;17.31;46.86;99899.16;10199735;28;1980;-70
2024/02/21 08:44:43;;;;;;;;;;;18.10;50.00;;;17.34;46.71;99894.69;10200236;28;853;-70
2024/02/21 08:49:38;;;;;;;;;;;18.10;49.80;;;17.33;46.77;99896.47;10198748;28;987;-70
2024/02/21 08:54:34;;;;;;;;;;;18.10;49.80;;;17.34;46.75;99892.06;10198141;28;849;-70
2024/02/21 08:59:29;;;;;;;;;;;18.10;49.70;;;17.35;46.88;99888.53;10198927;28;1910;-70
2024/02/21 09:04:25;;;;;;;;;;;18.20;49.70;;;17.35;46.69;99881.47;10198996;28;806;-70
2024/02/21 09:09:20;;;;;;;;;;;18.10;49.50;;;17.35;46.88;99867.44;10198327;28;830;-70
2024/02/21 09:14:15;;;;;;;;;;;18.10;49.70;;;17.38;46.82;99880.50;10198923;28;893;-70
2024/02/21 09:19:11;;;;;;;;;;;18.10;49.60;;;17.40;46.75;99883.94;10197996;28;1918;-70
2024/02/21 09:24:06;;;;;;;;;;;18.20;49.60;;;17.39;46.72;99864.59;10197402;28;909;-70
2024/02/21 09:29:03;;;;;;;;;;;18.10;49.60;;;17.40;46.76;99849.69;10197685;28;1383;-70
2024/02/21 09:33:59;;;;;;;;;;;18.20;49.70;;;17.42;46.66;99839.91;10197678;28;886;-70
2024/02/21 09:38:54;;;;;;;;;;;18.20;49.50;;;17.40;46.85;99837.34;10203707;28;1914;-70
2024/02/21 09:43:50;;;;;;;;;;;18.20;49.40;;;17.41;46.52;99825.88;10205430;28;927;-70
2024/02/21 09:48:45;;;;;;;;;;;18.20;49.40;;;17.42;46.57;99822.34;10205214;28;1562;-70
2024/02/21 09:53:40;;;;;;;;;;;18.20;49.60;;;17.42;46.73;99811.81;10204369;28;755;-70
2024/02/21 09:58:36;;;;;;;;;;;18.20;49.50;;;17.44;46.65;99811.72;10204088;28;1976;-70
2024/02/21 10:03:33;;;;;;;;;;;18.20;49.50;;;17.43;46.56;99815.28;10204034;28;779;-70
2024/02/21 10:08:28;;;;;;;;;;;18.30;49.30;;;17.42;46.46;99817.06;10203764;28;896;-70
2024/02/21 10:13:24;;;;;;;;;;;18.20;49.40;;;17.43;46.56;99821.41;10203214;28;1194;-70
2024/02/21 10:18:19;;;;;;;;;;;18.20;49.50;;;17.44;46.67;99809.09;10203587;28;1976;-71
2024/02/21 10:23:14;;;;;;;;;;;18.20;49.40;;;17.44;46.62;99814.34;10203998;28;877;-71
2024/02/21 10:28:10;;;;;;;;;;;18.20;49.40;;;17.45;46.69;99808.19;10203085;28;1159;-69
2024/02/21 10:33:05;;;;;;;;;;;18.20;49.30;;;17.44;46.44;99806.44;10200716;28;865;-70
2024/02/21 10:38:00;;;;;;;;;;;18.20;49.40;;;17.45;46.49;99818.72;10200597;28;2036;-70
2024/02/21 10:42:56;;;;;;;;;;;18.30;49.60;;;17.44;46.75;99809.94;10200492;28;779;-71
2024/02/21 10:47:52;;;;;;;;;;;18.20;49.70;;;17.44;46.69;99799.41;10199536;28;822;-70
2024/02/21 10:52:47;;;;;;;;;;;18.20;49.50;;;17.45;46.72;99777.41;10200376;28;887;-70
2024/02/21 10:57:43;;;;;;;;;;;18.20;49.50;;;17.47;46.62;99777.34;10200065;28;1922;-70
2024/02/21 11:02:39;;;;;;;;;;;18.20;49.40;;;17.49;46.55;99765.81;10201148;28;818;-70
2024/02/21 11:07:35;;;;;;;;;;;18.30;49.60;;;17.49;46.48;99746.50;10199729;28;877;-70
2024/02/21 11:12:30;;;;;;;;;;;18.20;49.40;;;17.49;46.70;99738.59;10199758;28;822;-70
2024/02/21 11:17:26;;;;;;;;;;;18.20;49.70;;;17.51;46.60;99744.69;10199831;28;1973;-71
2024/02/21 11:22:24;;;;;;;;;;;18.30;49.70;;;17.51;46.48;99729.72;10199579;28;852;-71
2024/02/21 11:27:25;;;;;;;;;;;18.30;49.50;;;17.52;46.58;99712.13;10199315;28;925;-71
2024/02/21 11:32:21;;;;;;;;;;;18.20;49.50;;;17.52;46.50;99698.94;10161662;28;1135561;-71
2024/02/21 11:37:16;;;;;;;;;;;18.30;49.40;;;17.52;46.54;99681.34;10201042;28;1918;-72
2024/02/21 11:42:12;;;;;;;;;;;18.30;49.30;;;17.52;46.57;99662.91;10200969;28;773;-71
2024/02/21 11:47:08;;;;;;;;;;;18.30;49.30;;;17.52;46.53;99649.72;10200864;28;925;-71
2024/02/21 11:52:06;;;;;;;;;;;18.30;49.40;;;17.53;46.37;99622.47;10201298;28;821;-71
2024/02/21 11:57:04;;;;;;;;;;;18.30;49.20;;;17.54;46.50;99612.78;10201269;28;1977;-71
2024/02/21 12:01:59;;;;;;;;;;;18.30;49.20;;;17.53;46.37;99595.25;10200374;28;892;-71
2024/02/21 12:06:54;;;;;;;;;;;18.30;49.20;;;17.53;46.43;99585.56;10200167;28;868;-70
2024/02/21 12:11:50;;;;;;;;;;;18.30;49.20;;;17.54;46.47;99581.16;10200067;28;774;-71
2024/02/21 12:16:47;;;;;;;;;;;18.30;49.30;;;17.55;46.43;99555.66;10199919;28;777;-71
2024/02/21 12:21:43;;;;;;;;;;;18.30;49.30;;;17.56;46.54;99550.31;10199654;28;1906;-71
2024/02/21 12:26:39;;;;;;;;;;;18.40;49.40;;;17.55;46.56;99516.13;10200156;28;802;-71
2024/02/21 12:31:34;;;;;;;;;;;18.40;49.50;;;17.57;46.56;99507.22;10199081;28;1282;-70
2024/02/21 12:36:30;;;;;;;;;;;18.40;49.50;;;17.59;46.70;99504.53;10199177;28;1121;-71
2024/02/21 12:41:26;;;;;;;;;;;18.40;49.60;;;17.59;46.59;99479.00;10199858;28;1911;-71
2024/02/21 12:46:22;;;;;;;;;;;18.40;49.70;;;17.58;46.66;99458.88;10199885;28;961;-71
2024/02/21 12:51:20;;;;;;;;;;;18.40;49.70;;;17.60;46.60;99437.69;10198941;28;948;-71
2024/02/21 12:56:16;;;;;;;;;;;18.40;49.70;;;17.60;46.60;99419.25;10198765;28;790;-71
2024/02/21 13:01:12;;;;;;;;;;;18.40;49.70;;;17.60;46.67;99400.81;10199122;28;1906;-69
2024/02/21 13:06:10;;;;;;;;;;;18.40;49.70;;;17.62;46.69;99378.72;10198471;28;794;-70
2024/02/21 13:11:05;;;;;;;;;;;18.40;49.80;;;17.63;46.63;99375.19;10198178;28;860;-72
2024/02/21 13:16:01;;;;;;;;;;;18.40;49.80;;;17.63;46.67;99347.94;10198800;28;773;-73
2024/02/21 13:20:56;;;;;;;;;;;18.40;49.80;;;17.64;46.73;99323.31;10198044;28;1958;-71
2024/02/21 13:25:52;;;;;;;;;;;18.40;50.00;;;17.65;46.77;99332.91;10198745;28;900;-72
2024/02/21 13:30:47;;;;;;;;;;;18.40;50.00;;;17.65;46.80;99303.91;10198010;28;1120;-70
2024/02/21 13:35:42;;;;;;;;;;;18.40;50.00;;;17.65;46.72;99273.13;10197666;28;941;-71
2024/02/21 13:40:38;;;;;;;;;;;18.40;50.00;;;17.66;46.86;99237.97;10198291;28;1914;-71
2024/02/21 13:45:33;;;;;;;;;;;18.40;50.20;;;17.67;46.82;99231.75;10197610;28;852;-71
2024/02/21 13:50:28;;;;;;;;;;;18.40;50.10;;;17.68;46.92;99253.69;10198196;28;845;-71
2024/02/21 13:55:27;;;;;;;;;;;18.50;50.20;;;17.68;46.78;99261.59;10196413;28;833;-71
2024/02/21 14:00:22;;;;;;;;;;;18.50;50.10;;;17.68;46.83;99244.03;10197335;28;1906;-71
2024/02/21 14:05:18;;;;;;;;;;;18.50;49.90;;;17.67;46.79;99234.38;10197317;28;863;-71
2024/02/21 14:10:13;;;;;;;;;;;18.50;49.80;;;17.67;46.88;99239.66;10197511;28;848;-71
2024/02/21 14:15:09;;;;;;;;;;;18.50;50.00;;;17.68;46.76;99249.28;10197080;28;917;-71
2024/02/21 14:20:04;;;;;;;;;;;18.50;50.00;;;17.68;46.56;99240.50;10196358;28;1902;-71
2024/02/21 14:25:00;;;;;;;;;;;18.50;49.80;;;17.68;46.67;99212.38;10201512;28;898;-71
2024/02/21 14:29:55;;;;;;;;;;;18.40;49.60;;;17.68;46.74;99180.75;10202759;28;1304;-71
2024/02/21 14:34:51;;;;;;;;;;;18.40;49.60;;;17.68;46.63;99188.66;10203466;28;943;-71
2024/02/21 14:39:46;;;;;;;;;;;18.40;49.70;;;17.68;46.77;99198.34;10203299;28;1906;-71
2024/02/21 14:44:41;;;;;;;;;;;18.40;49.70;;;17.68;46.64;99178.13;10202552;28;773;-71
2024/02/21 14:49:37;;;;;;;;;;;18.40;49.60;;;17.69;46.54;99142.06;10201835;28;945;-71
2024/02/21 14:54:32;;;;;;;;;;;18.50;49.70;;;17.68;46.66;99135.06;10202845;28;893;-71
2024/02/21 14:59:28;;;;;;;;;;;18.50;49.80;;;17.68;46.61;99141.22;10202636;28;1902;-71
2024/02/21 15:04:23;;;;;;;;;;;18.50;49.80;;;17.68;46.69;99154.41;10202558;28;838;-71
2024/02/21 15:09:19;;;;;;;;;;;18.50;49.70;;;17.68;46.68;99125.41;10202677;28;900;-71
2024/02/21 15:14:14;;;;;;;;;;;18.50;49.70;;;17.69;46.81;99127.09;10201571;28;901;-71
2024/02/21 15:19:10;;;;;;;;;;;18.40;49.80;;;17.70;46.61;99107.72;10201392;28;1964;-71
2024/02/21 15:24:05;;;;;;;;;;;18.50;49.60;;;17.68;46.67;99091.16;10200817;28;932;-71
2024/02/21 15:29:00;;;;;;;;;;;18.50;49.70;;;17.69;46.69;99073.53;10201348;28;1134;-71
2024/02/21 15:33:56;;;;;;;;;;;18.40;49.70;;;17.69;46.73;99066.47;10200411;28;789;-71
2024/02/21 15:38:51;;;;;;;;;;;18.50;49.80;;;17.69;46.68;99060.38;10202193;28;1906;-71
2024/02/21 15:43:47;;;;;;;;;;;18.50;49.70;;;17.68;46.76;99033.16;10201256;28;869;-71
2024/02/21 15:48:43;;;;;;;;;;;18.40;49.80;;;17.69;46.51;99023.47;10200907;28;879;-72
2024/02/21 15:53:38;;;;;;;;;;;18.40;49.90;;;17.69;46.75;99026.09;10201057;28;814;-70
2024/02/21 15:58:34;;;;;;;;;;;18.50;49.80;;;17.68;46.61;99022.63;10198543;28;1914;-71
2024/02/21 16:03:30;;;;;;;;;;;18.50;49.60;;;17.67;46.50;99014.78;10199877;28;917;-71
2024/02/21 16:08:26;;;;;;;;;;;18.50;49.40;;;17.65;46.45;98991.13;10200231;28;855;-70
2024/02/21 16:13:21;;;;;;;;;;;18.50;49.40;;;17.64;46.38;98981.53;10199686;28;859;-71
2024/02/21 16:18:20;;;;;;;;;;;18.40;49.50;;;17.63;46.47;98974.59;10199598;28;1910;-70
2024/02/21 16:23:15;;;;;;;;;;;18.40;49.20;;;17.61;46.29;98971.19;10200667;28;866;-70
2024/02/21 16:28:11;;;;;;;;;;;18.40;49.30;;;17.61;46.45;98965.91;10199681;28;1332;-70
2024/02/21 16:33:09;;;;;;;;;;;18.40;49.40;;;17.60;46.56;98961.56;10199274;28;708;-71
2024/02/21 16:38:04;;;;;;;;;;;18.40;49.60;;;17.59;46.75;98959.88;10198743;28;1956;-70
2024/02/21 16:43:02;;;;;;;;;;;18.40;49.60;;;17.59;46.57;98944.06;10199418;28;897;-71
2024/02/21 16:47:57;;;;;;;;;;;18.40;49.70;;;17.59;46.64;98956.38;10198288;28;849;-72
2024/02/21 16:52:53;;;;;;;;;;;18.40;49.70;;;17.60;46.70;98952.81;10198658;28;865;-72
2024/02/21 16:57:48;;;;;;;;;;;18.40;49.70;;;17.60;46.46;98947.53;10198449;28;1907;-71
2024/02/21 17:02:44;;;;;;;;;;;18.40;49.70;;;17.60;46.71;98948.38;10198234;28;933;-71
2024/02/21 17:07:39;;;;;;;;;;;18.40;49.30;;;17.60;46.69;98945.75;10198241;28;794;-71
2024/02/21 17:12:37;;;;;;;;;;;18.40;49.70;;;17.61;46.66;98934.28;10198696;28;870;-70
2024/02/21 17:17:33;;;;;;;;;;;18.40;49.70;;;17.62;46.46;98930.69;10198470;28;1966;-71
2024/02/21 17:22:28;;;;;;;;;;;18.40;49.50;;;17.62;46.52;98920.16;10198453;28;882;-71
2024/02/21 17:27:24;;;;;;;;;;;18.40;49.50;;;17.64;46.47;98904.28;10198203;28;1009;-70
2024/02/21 17:32:19;;;;;;;;;;;18.40;49.50;;;17.63;46.55;98890.25;10197563;28;1381;-70
2024/02/21 17:37:14;;;;;;;;;;;18.50;49.50;;;17.63;46.48;98877.09;10197328;28;1906;-71
2024/02/21 17:42:10;;;;;;;;;;;18.50;49.60;;;17.65;46.46;98864.66;10197342;28;925;-71
2024/02/21 17:47:05;;;;;;;;;;;18.50;49.60;;;17.65;46.59;98851.47;10197958;28;908;-71
2024/02/21 17:52:01;;;;;;;;;;;18.50;49.60;;;17.65;46.57;98843.56;10197769;28;867;-71
2024/02/21 17:56:57;;;;;;;;;;;18.50;49.60;;;17.65;46.51;98825.13;10198656;28;846;-71
2024/02/21 18:01:52;;;;;;;;;;;18.50;49.40;;;17.67;46.51;98817.13;10203834;28;1894;-71
2024/02/21 18:06:48;;;;;;;;;;;18.50;49.50;;;17.67;46.41;98786.34;10203809;28;782;-71
2024/02/21 18:11:43;;;;;;;;;;;18.50;49.50;;;17.68;46.47;98776.66;10203549;28;980;-71
2024/02/21 18:16:39;;;;;;;;;;;18.50;49.50;;;17.69;46.63;98778.38;10203496;28;846;-71
2024/02/21 18:21:34;;;;;;;;;;;18.50;49.40;;;17.68;46.62;98780.16;10203844;28;1910;-71
2024/02/21 18:26:30;;;;;;;;;;;18.50;49.40;;;17.68;46.36;98763.47;10203770;28;970;-71
2024/02/21 18:31:29;;;;;;;;;;;18.50;49.20;;;17.69;46.47;98757.28;10202340;28;1290;-70
2024/02/21 18:36:24;;;;;;;;;;;18.50;49.30;;;17.70;46.47;98751.06;10202948;28;785;-71
2024/02/21 18:41:20;;;;;;;;;;;18.50;49.10;;;17.70;46.30;98712.38;10202620;28;1969;-70
2024/02/21 18:46:15;;;;;;;;;;;18.50;49.40;;;17.70;46.32;98690.44;10202537;28;876;-71
2024/02/21 18:51:11;;;;;;;;;;;18.50;49.40;;;17.71;46.42;98682.47;10201911;28;936;-71
2024/02/21 18:56:06;;;;;;;;;;;18.60;49.30;;;17.71;46.62;98664.03;10203116;28;786;-71
2024/02/21 19:01:03;;;;;;;;;;;18.50;49.30;;;17.71;46.40;98656.09;10202877;28;1963;-71
2024/02/21 19:05:58;;;;;;;;;;;18.60;49.30;;;17.72;46.52;98647.25;10202686;28;788;-71
2024/02/21 19:10:54;;;;;;;;;;;18.60;49.40;;;17.73;46.44;98645.47;10201565;28;772;-70
2024/02/21 19:15:49;;;;;;;;;;;18.50;49.30;;;17.74;46.26;98644.53;10201696;28;794;-71
2024/02/21 19:20:45;;;;;;;;;;;18.60;49.20;;;17.73;46.31;98638.41;10200801;28;1969;-71
2024/02/21 19:25:42;;;;;;;;;;;18.50;49.20;;;17.74;46.26;98644.53;10201972;28;919;-71
2024/02/21 19:30:37;;;;;;;;;;;18.50;49.10;;;17.74;46.30;98626.94;10201013;28;1149;-70
2024/02/21 19:35:33;;;;;;;;;;;18.50;49.20;;;17.75;46.25;98614.59;10201658;28;896;-71
2024/02/21 19:40:29;;;;;;;;;;;18.50;49.20;;;17.75;46.18;98609.31;10200803;28;1971;-70
2024/02/21 19:45:27;;;;;;;;;;;18.50;49.20;;;17.75;46.29;98596.16;10201454;28;875;-71
2024/02/21 19:50:24;;;;;;;;;;;18.60;49.30;;;17.75;46.18;98573.25;10201171;28;873;-71
2024/02/21 19:55:20;;;;;;;;;;;18.60;49.20;;;17.77;46.10;98561.81;10201050;28;842;-71
2024/02/21 20:00:15;;;;;;;;;;;18.50;49.00;;;17.77;46.31;98554.72;10200272;28;1902;-71
2024/02/21 20:05:10;;;;;;;;;;;18.50;49.20;;;17.75;46.03;98536.38;10200155;28;765;-71
2024/02/21 20:10:07;;;;;;;;;;;18.50;49.00;;;17.77;46.25;98535.44;10200170;28;875;-70
2024/02/21 20:15:05;;;;;;;;;;;18.60;49.10;;;17.77;46.18;98528.38;10199897;28;838;-71
2024/02/21 20:20:00;;;;;;;;;;;18.60;49.00;;;17.77;46.04;98525.75;10198775;28;1961;-71
2024/02/21 20:24:55;;;;;;;;;;;18.50;49.10;;;17.78;46.07;98516.03;10200066;28;853;-71
2024/02/21 20:29:51;;;;;;;;;;;18.50;49.00;;;17.77;45.96;98523.09;10198941;28;1302;-71
2024/02/21 20:34:47;;;;;;;;;;;18.50;49.00;;;17.78;46.18;98513.41;10199339;28;911;-71
2024/02/21 20:39:43;;;;;;;;;;;18.50;49.10;;;17.77;46.20;98496.75;10199101;28;1910;-71
2024/02/21 20:44:38;;;;;;;;;;;18.50;48.90;;;17.77;46.11;98507.28;10199006;28;865;-71
2024/02/21 20:49:33;;;;;;;;;;;18.60;49.00;;;17.77;46.01;98491.47;10199430;28;884;-71
2024/02/21 20:54:29;;;;;;;;;;;18.50;48.80;;;17.76;46.01;98489.78;10198101;28;952;-71
2024/02/21 20:59:24;;;;;;;;;;;18.50;48.90;;;17.74;45.79;98476.72;10199406;28;1906;-70
2024/02/21 21:04:20;;;;;;;;;;;18.50;48.80;;;17.73;46.02;98453.91;10197756;28;973;-71
2024/02/21 21:09:18;;;;;;;;;;;18.50;48.80;;;17.74;45.97;98441.59;10198232;28;810;-71
2024/02/21 21:14:13;;;;;;;;;;;18.50;48.80;;;17.74;45.78;98423.16;10198973;28;778;-71
2024/02/21 21:19:09;;;;;;;;;;;18.50;49.00;;;17.74;45.99;98420.53;10198691;28;1969;-71
2024/02/21 21:24:05;;;;;;;;;;;18.50;49.10;;;17.74;45.98;98412.63;10198023;28;960;-71
2024/02/21 21:29:00;;;;;;;;;;;18.50;49.10;;;17.73;46.13;98416.19;10197648;28;1057;-71
2024/02/21 21:33:55;;;;;;;;;;;18.50;49.10;;;17.72;46.13;98398.69;10203574;28;814;-70
2024/02/21 21:38:53;;;;;;;;;;;18.50;49.10;;;17.71;46.13;98382.03;10204915;28;2315;-71
2024/02/21 21:43:48;;;;;;;;;;;18.40;49.10;;;17.70;45.98;98385.59;10204828;28;775;-70
2024/02/21 21:48:43;;;;;;;;;;;18.40;49.00;;;17.71;45.98;98383.81;10204679;28;897;-70
2024/02/21 21:53:39;;;;;;;;;;;18.30;49.10;;;17.71;45.88;98378.53;10205174;28;825;-71
2024/02/21 21:58:36;;;;;;;;;;;18.30;49.10;;;17.70;46.01;98379.47;10204231;28;1914;-71
2024/02/21 22:03:31;;;;;;;;;;;18.40;49.20;;;17.68;46.03;98353.25;10204164;28;1016;-70
2024/02/21 22:08:27;;;;;;;;;;;18.30;49.00;;;17.66;46.13;98357.78;10204083;28;771;-71
2024/02/21 22:13:22;;;;;;;;;;;18.30;49.00;;;17.64;45.97;98343.84;10203904;28;832;-71
2024/02/21 22:18:17;;;;;;;;;;;18.30;48.90;;;17.64;45.82;98328.03;10203742;28;1922;-70
2024/02/21 22:23:13;;;;;;;;;;;18.30;49.00;;;17.61;45.83;98333.50;10203546;28;901;-71
2024/02/21 22:28:08;;;;;;;;;;;18.30;48.80;;;17.61;45.80;98319.50;10203489;28;816;-70
2024/02/21 22:33:04;;;;;;;;;;;18.30;48.90;;;17.58;45.91;98312.63;10203518;28;1334;-71
2024/02/21 22:37:59;;;;;;;;;;;18.20;49.00;;;17.58;45.82;98301.22;10203154;28;1918;-71
2024/02/21 22:42:54;;;;;;;;;;;18.20;48.90;;;17.56;45.83;98293.44;10202978;28;852;-70